createdAt,value
2018-04-06T00:00:17.977Z,0.00
2018-04-06T00:01:17.913Z,0.00
2018-04-06T00:02:17.885Z,0.00
2018-04-06T00:03:17.860Z,0.00
2018-04-06T00:04:17.789Z,0.00
2018-04-06T00:05:17.743Z,0.00
2018-04-06T00:06:17.693Z,0.00
2018-04-06T00:07:17.656Z,0.00
2018-04-06T00:08:17.609Z,0.00
2018-04-06T00:09:17.593Z,0.00
2018-04-06T00:10:17.515Z,0.00
2018-04-06T00:11:17.467Z,0.00
2018-04-06T00:12:17.422Z,0.00
2018-04-06T00:13:17.387Z,0.00
2018-04-06T00:14:17.353Z,0.00
2018-04-06T00:15:17.322Z,0.00
2018-04-06T00:16:17.252Z,0.00
2018-04-06T00:17:17.208Z,0.00
2018-04-06T00:18:17.154Z,0.00
2018-04-06T00:19:17.120Z,0.00
2018-04-06T00:20:17.093Z,0.00
2018-04-06T00:21:17.016Z,0.00
2018-04-06T00:22:16.977Z,0.00
2018-04-06T00:23:16.934Z,0.00
2018-04-06T00:24:16.891Z,0.00
2018-04-06T00:25:16.868Z,0.00
2018-04-06T00:26:16.799Z,0.00
2018-04-06T00:27:16.756Z,0.00
2018-04-06T00:28:16.717Z,0.00
2018-04-06T00:29:16.666Z,0.00
2018-04-06T00:30:16.612Z,0.00
2018-04-06T00:31:16.597Z,0.00
2018-04-06T00:32:16.534Z,0.00
2018-04-06T00:33:16.480Z,0.00
2018-04-06T00:34:16.466Z,0.00
2018-04-06T00:35:16.421Z,0.00
2018-04-06T00:36:16.353Z,0.00
2018-04-06T00:37:16.306Z,0.00
2018-04-06T00:38:16.257Z,0.00
2018-04-06T00:39:16.218Z,0.00
2018-04-06T00:40:16.170Z,0.00
2018-04-06T00:41:16.147Z,0.00
2018-04-06T00:42:16.079Z,0.00
2018-04-06T00:43:16.039Z,0.00
2018-04-06T00:44:15.988Z,0.00
2018-04-06T00:45:15.951Z,0.00
2018-04-06T00:46:15.923Z,0.00
2018-04-06T00:47:15.860Z,0.00
2018-04-06T00:48:15.814Z,0.00
2018-04-06T00:49:15.768Z,0.00
2018-04-06T00:50:15.771Z,0.00
2018-04-06T00:51:15.675Z,0.00
2018-04-06T00:52:15.659Z,0.00
2018-04-06T00:53:15.582Z,0.00
2018-04-06T00:54:15.549Z,0.00
2018-04-06T00:55:15.492Z,0.00
2018-04-06T00:56:15.450Z,0.00
2018-04-06T00:57:15.407Z,0.00
2018-04-06T00:58:15.388Z,0.00
2018-04-06T00:59:15.325Z,0.00
2018-04-06T01:00:15.278Z,0.00
2018-04-06T01:01:15.228Z,0.00
2018-04-06T01:02:15.210Z,0.00
2018-04-06T01:03:15.152Z,0.00
2018-04-06T01:04:15.101Z,0.00
2018-04-06T01:05:15.044Z,0.00
2018-04-06T01:06:15.008Z,0.00
2018-04-06T01:07:14.988Z,0.00
2018-04-06T01:08:14.921Z,0.00
2018-04-06T01:09:14.867Z,0.00
2018-04-06T01:10:14.820Z,0.00
2018-04-06T01:11:14.784Z,0.00
2018-04-06T01:12:14.777Z,0.00
2018-04-06T01:13:14.692Z,0.00
2018-04-06T01:14:14.640Z,0.00
2018-04-06T01:15:14.605Z,0.00
2018-04-06T01:16:14.562Z,0.00
2018-04-06T01:17:14.516Z,0.00
2018-04-06T01:18:14.495Z,0.00
2018-04-06T01:19:14.432Z,0.00
2018-04-06T01:20:14.381Z,0.00
2018-04-06T01:21:14.331Z,0.00
2018-04-06T01:22:14.297Z,0.00
2018-04-06T01:23:14.270Z,0.00
2018-04-06T01:24:14.200Z,0.00
2018-04-06T01:25:14.165Z,0.00
2018-04-06T01:26:14.121Z,0.00
2018-04-06T01:27:14.064Z,0.00
2018-04-06T01:28:14.022Z,0.00
2018-04-06T01:29:13.999Z,0.00
2018-04-06T01:30:13.938Z,0.00
2018-04-06T01:31:13.884Z,0.00
2018-04-06T01:32:13.852Z,0.00
2018-04-06T01:33:13.802Z,0.00
2018-04-06T01:34:13.754Z,0.00
2018-04-06T01:35:13.747Z,0.00
2018-04-06T01:36:13.658Z,0.00
2018-04-06T01:37:13.622Z,0.00
2018-04-06T01:38:13.568Z,0.00
2018-04-06T01:39:13.559Z,0.00
2018-04-06T01:40:13.485Z,0.00
2018-04-06T01:41:13.440Z,0.00
2018-04-06T01:42:13.393Z,0.00
2018-04-06T01:43:13.355Z,0.00
2018-04-06T01:44:13.331Z,0.00
2018-04-06T01:45:13.263Z,0.00
2018-04-06T01:46:13.215Z,0.00
2018-04-06T01:47:13.174Z,0.00
2018-04-06T01:48:13.123Z,0.00
2018-04-06T01:49:13.111Z,0.00
2018-04-06T01:50:13.037Z,0.00
2018-04-06T01:51:12.994Z,0.00
2018-04-06T01:52:12.946Z,0.00
2018-04-06T01:53:12.914Z,0.00
2018-04-06T01:54:12.856Z,0.00
2018-04-06T01:55:12.845Z,0.00
2018-04-06T01:56:12.770Z,0.00
2018-04-06T01:57:12.724Z,0.00
2018-04-06T01:58:12.672Z,0.00
2018-04-06T01:59:12.664Z,0.00
2018-04-06T02:00:12.584Z,0.00
2018-04-06T02:01:12.540Z,0.00
2018-04-06T02:02:12.492Z,0.00
2018-04-06T02:03:12.468Z,0.00
2018-04-06T02:04:12.434Z,0.00
2018-04-06T02:05:13.070Z,0.00
2018-04-06T02:06:12.319Z,0.00
2018-04-06T02:07:12.278Z,0.00
2018-04-06T02:08:12.230Z,0.00
2018-04-06T02:09:12.185Z,0.00
2018-04-06T02:10:12.159Z,0.00
2018-04-06T02:11:12.095Z,0.00
2018-04-06T02:12:12.054Z,0.00
2018-04-06T02:13:12.005Z,0.00
2018-04-06T02:14:11.956Z,0.00
2018-04-06T02:15:11.923Z,0.00
2018-04-06T02:16:11.907Z,0.00
2018-04-06T02:17:11.837Z,0.00
2018-04-06T02:18:11.773Z,0.00
2018-04-06T02:19:11.737Z,0.00
2018-04-06T02:20:11.692Z,0.00
2018-04-06T02:21:11.638Z,0.00
2018-04-06T02:22:11.619Z,0.00
2018-04-06T02:23:11.602Z,0.00
2018-04-06T02:24:11.546Z,0.00
2018-04-06T02:25:11.464Z,0.00
2018-04-06T02:26:11.418Z,0.00
2018-04-06T02:27:11.414Z,0.00
2018-04-06T02:28:11.351Z,0.00
2018-04-06T02:29:11.287Z,0.00
2018-04-06T02:30:11.237Z,0.00
2018-04-06T02:31:11.232Z,0.00
2018-04-06T02:32:11.150Z,0.00
2018-04-06T02:33:11.097Z,0.00
2018-04-06T02:34:11.105Z,0.00
2018-04-06T02:35:11.002Z,0.00
2018-04-06T02:36:10.971Z,0.00
2018-04-06T02:37:10.928Z,0.00
2018-04-06T02:38:10.874Z,0.00
2018-04-06T02:39:10.833Z,0.00
2018-04-06T02:40:10.799Z,0.00
2018-04-06T02:41:10.734Z,0.00
2018-04-06T02:42:10.683Z,0.00
2018-04-06T02:43:10.653Z,0.00
2018-04-06T02:44:10.619Z,0.00
2018-04-06T02:45:10.598Z,0.00
2018-04-06T02:46:10.542Z,0.00
2018-04-06T02:47:10.471Z,0.00
2018-04-06T02:48:10.420Z,0.00
2018-04-06T02:49:10.389Z,0.00
2018-04-06T02:50:10.334Z,0.00
2018-04-06T02:51:10.330Z,0.00
2018-04-06T02:52:10.257Z,0.00
2018-04-06T02:53:10.204Z,0.00
2018-04-06T02:54:10.158Z,0.00
2018-04-06T02:55:10.097Z,0.00
2018-04-06T02:56:10.061Z,0.00
2018-04-06T02:57:10.040Z,0.00
2018-04-06T02:58:09.981Z,0.00
2018-04-06T02:59:09.925Z,0.00
2018-04-06T03:00:09.894Z,0.00
2018-04-06T03:01:09.844Z,0.00
2018-04-06T03:02:09.786Z,0.00
2018-04-06T03:03:10.710Z,0.00
2018-04-06T03:04:09.698Z,0.00
2018-04-06T03:05:09.655Z,0.00
2018-04-06T03:06:09.617Z,0.00
2018-04-06T03:07:09.560Z,0.00
2018-04-06T03:08:09.518Z,0.00
2018-04-06T03:09:09.519Z,0.00
2018-04-06T03:10:09.428Z,0.00
2018-04-06T03:11:09.378Z,0.00
2018-04-06T03:12:09.332Z,0.00
2018-04-06T03:13:09.287Z,0.00
2018-04-06T03:14:09.236Z,0.00
2018-04-06T03:15:09.252Z,0.00
2018-04-06T03:16:09.167Z,0.00
2018-04-06T03:17:09.112Z,0.00
2018-04-06T03:18:09.067Z,0.00
2018-04-06T03:19:09.023Z,0.00
2018-04-06T03:20:08.983Z,0.00
2018-04-06T03:21:08.960Z,0.00
2018-04-06T03:22:08.884Z,0.00
2018-04-06T03:23:08.838Z,0.00
2018-04-06T03:24:08.797Z,0.00
2018-04-06T03:25:08.741Z,0.00
2018-04-06T03:26:08.724Z,0.00
2018-04-06T03:27:08.648Z,0.00
2018-04-06T03:28:08.607Z,0.00
2018-04-06T03:29:08.571Z,0.00
2018-04-06T03:30:08.512Z,0.00
2018-04-06T03:31:08.497Z,0.00
2018-04-06T03:32:08.417Z,0.00
2018-04-06T03:33:08.376Z,0.00
2018-04-06T03:34:08.324Z,0.00
2018-04-06T03:35:08.291Z,0.00
2018-04-06T03:36:08.238Z,0.00
2018-04-06T03:37:08.216Z,0.00
2018-04-06T03:38:08.152Z,0.00
2018-04-06T03:39:08.108Z,0.00
2018-04-06T03:40:08.057Z,0.00
2018-04-06T03:41:08.015Z,0.00
2018-04-06T03:42:07.965Z,0.00
2018-04-06T03:43:07.945Z,0.00
2018-04-06T03:44:07.923Z,0.00
2018-04-06T03:45:07.833Z,0.00
2018-04-06T03:46:07.786Z,0.00
2018-04-06T03:47:07.735Z,0.00
2018-04-06T03:48:07.720Z,0.00
2018-04-06T03:49:07.646Z,0.00
2018-04-06T03:50:07.610Z,0.00
2018-04-06T03:51:07.552Z,0.00
2018-04-06T03:52:07.514Z,0.00
2018-04-06T03:53:07.464Z,0.00
2018-04-06T03:54:07.442Z,0.00
2018-04-06T03:55:07.372Z,0.00
2018-04-06T03:56:07.335Z,0.00
2018-04-06T03:57:07.327Z,0.00
2018-04-06T03:58:07.239Z,0.00
2018-04-06T03:59:07.188Z,0.00
2018-04-06T04:00:07.171Z,0.00
2018-04-06T04:01:07.108Z,0.00
2018-04-06T04:02:07.104Z,0.00
2018-04-06T04:03:07.004Z,0.00
2018-04-06T04:04:06.956Z,0.00
2018-04-06T04:05:06.991Z,0.00
2018-04-06T04:06:06.869Z,0.00
2018-04-06T04:07:06.828Z,0.00
2018-04-06T04:08:06.777Z,0.00
2018-04-06T04:09:06.727Z,0.00
2018-04-06T04:10:06.697Z,0.00
2018-04-06T04:11:06.667Z,0.00
2018-04-06T04:12:06.596Z,0.00
2018-04-06T04:13:06.554Z,0.00
2018-04-06T04:14:06.500Z,0.00
2018-04-06T04:15:06.457Z,0.00
2018-04-06T04:16:06.405Z,0.00
2018-04-06T04:17:06.713Z,0.00
2018-04-06T04:18:06.321Z,0.00
2018-04-06T04:19:06.274Z,0.00
2018-04-06T04:20:06.227Z,0.00
2018-04-06T04:21:06.181Z,0.00
2018-04-06T04:22:06.168Z,0.00
2018-04-06T04:23:06.095Z,4.00
2018-04-06T04:24:06.037Z,0.00
2018-04-06T04:25:06.002Z,0.00
2018-04-06T04:26:05.951Z,4.00
2018-04-06T04:27:05.907Z,0.00
2018-04-06T04:28:05.884Z,4.00
2018-04-06T04:29:05.813Z,4.00
2018-04-06T04:30:05.771Z,4.00
2018-04-06T04:31:05.721Z,4.00
2018-04-06T04:32:05.675Z,4.00
2018-04-06T04:33:05.652Z,8.00
2018-04-06T04:34:05.585Z,12.00
2018-04-06T04:35:05.533Z,12.00
2018-04-06T04:36:05.496Z,12.00
2018-04-06T04:37:05.453Z,16.00
2018-04-06T04:38:05.400Z,20.00
2018-04-06T04:39:05.389Z,24.00
2018-04-06T04:40:05.308Z,24.00
2018-04-06T04:41:05.258Z,32.00
2018-04-06T04:42:05.216Z,36.00
2018-04-06T04:43:05.173Z,40.00
2018-04-06T04:44:05.125Z,48.00
2018-04-06T04:45:05.111Z,56.00
2018-04-06T04:46:05.026Z,64.00
2018-04-06T04:47:04.991Z,72.00
2018-04-06T04:48:04.937Z,84.00
2018-04-06T04:49:04.900Z,92.00
2018-04-06T04:50:04.856Z,104.00
2018-04-06T04:51:04.841Z,116.00
2018-04-06T04:52:04.758Z,132.00
2018-04-06T04:53:04.715Z,144.00
2018-04-06T04:54:04.665Z,160.00
2018-04-06T04:55:04.615Z,176.00
2018-04-06T04:56:04.572Z,196.00
2018-04-06T04:57:04.548Z,216.00
2018-04-06T04:58:04.473Z,240.00
2018-04-06T04:59:04.440Z,260.00
2018-04-06T05:00:04.397Z,288.00
2018-04-06T05:01:04.338Z,312.00
2018-04-06T05:02:04.318Z,340.00
2018-04-06T05:03:04.251Z,368.00
2018-04-06T05:04:04.208Z,400.00
2018-04-06T05:05:04.164Z,432.00
2018-04-06T05:06:04.113Z,464.00
2018-04-06T05:07:04.086Z,500.00
2018-04-06T05:08:04.019Z,536.00
2018-04-06T05:09:03.973Z,580.00
2018-04-06T05:10:03.935Z,616.00
2018-04-06T05:11:03.887Z,660.00
2018-04-06T05:12:03.843Z,704.00
2018-04-06T05:13:03.813Z,748.00
2018-04-06T05:14:03.743Z,788.00
2018-04-06T05:15:03.698Z,832.00
2018-04-06T05:16:03.649Z,872.00
2018-04-06T05:17:03.605Z,912.00
2018-04-06T05:18:03.592Z,956.00
2018-04-06T05:19:03.518Z,1000.00
2018-04-06T05:20:03.470Z,1048.00
2018-04-06T05:21:03.445Z,1092.00
2018-04-06T05:22:03.376Z,1140.00
2018-04-06T05:23:03.336Z,1188.00
2018-04-06T05:24:03.322Z,1232.00
2018-04-06T05:25:03.256Z,1276.00
2018-04-06T05:26:03.194Z,1320.00
2018-04-06T05:27:03.144Z,1360.00
2018-04-06T05:28:03.099Z,1412.00
2018-04-06T05:29:03.062Z,1452.00
2018-04-06T05:30:03.038Z,1496.00
2018-04-06T05:31:02.977Z,1540.00
2018-04-06T05:32:02.913Z,1588.00
2018-04-06T05:33:02.876Z,1616.00
2018-04-06T05:34:02.829Z,1656.00
2018-04-06T05:35:02.815Z,1708.00
2018-04-06T05:36:02.740Z,1748.00
2018-04-06T05:37:02.696Z,1788.00
2018-04-06T05:38:02.654Z,1824.00
2018-04-06T05:39:02.603Z,1860.00
2018-04-06T05:40:02.560Z,1896.00
2018-04-06T05:41:02.542Z,1940.00
2018-04-06T05:42:02.473Z,1980.00
2018-04-06T05:43:02.421Z,2020.00
2018-04-06T05:44:02.372Z,2064.00
2018-04-06T05:45:02.347Z,2100.00
2018-04-06T05:46:02.284Z,2136.00
2018-04-06T05:47:02.274Z,2176.00
2018-04-06T05:48:02.201Z,2212.00
2018-04-06T05:49:02.153Z,2252.00
2018-04-06T05:50:02.118Z,2288.00
2018-04-06T05:51:02.078Z,2320.00
2018-04-06T05:52:02.027Z,2356.00
2018-04-06T05:53:01.998Z,2404.00
2018-04-06T05:54:01.929Z,2444.00
2018-04-06T05:55:01.886Z,2556.00
2018-04-06T05:56:01.851Z,3024.00
2018-04-06T05:57:01.795Z,3804.00
2018-04-06T05:58:01.752Z,4732.00
2018-04-06T05:59:01.740Z,5940.00
2018-04-06T06:00:01.663Z,6572.00
2018-04-06T06:01:01.618Z,6792.00
2018-04-06T06:02:01.581Z,6932.00
2018-04-06T06:03:01.526Z,7068.00
2018-04-06T06:04:01.505Z,7180.00
2018-04-06T06:05:01.452Z,7324.00
2018-04-06T06:06:01.402Z,7520.00
2018-04-06T06:07:01.360Z,7652.00
2018-04-06T06:08:01.323Z,7716.00
2018-04-06T06:09:01.305Z,7828.00
2018-04-06T06:10:01.233Z,7972.00
2018-04-06T06:11:01.187Z,8080.00
2018-04-06T06:12:01.148Z,8160.00
2018-04-06T06:13:01.105Z,8296.00
2018-04-06T06:14:01.073Z,8444.00
2018-04-06T06:15:01.078Z,8540.00
2018-04-06T06:16:00.985Z,8608.00
2018-04-06T06:17:00.941Z,8712.00
2018-04-06T06:18:00.900Z,8824.00
2018-04-06T06:19:00.863Z,8896.00
2018-04-06T06:20:00.836Z,8992.00
2018-04-06T06:21:00.799Z,9088.00
2018-04-06T06:22:00.751Z,9188.00
2018-04-06T06:23:00.705Z,9268.00
2018-04-06T06:24:00.684Z,9344.00
2018-04-06T06:25:00.627Z,9424.00
2018-04-06T06:26:00.623Z,9520.00
2018-04-06T06:27:00.548Z,9588.00
2018-04-06T06:28:00.501Z,9660.00
2018-04-06T06:29:00.511Z,9756.00
2018-04-06T06:30:00.426Z,9840.00
2018-04-06T06:31:00.394Z,9908.00
2018-04-06T06:32:00.378Z,9976.00
2018-04-06T06:33:00.342Z,10084.00
2018-04-06T06:34:00.279Z,10104.00
2018-04-06T06:35:00.234Z,10188.00
2018-04-06T06:36:00.220Z,10240.00
2018-04-06T06:37:00.205Z,10324.00
2018-04-06T06:38:00.126Z,10400.00
2018-04-06T06:39:00.099Z,10440.00
2018-04-06T06:40:00.054Z,10456.00
2018-04-06T06:41:00.018Z,10592.00
2018-04-06T06:42:00.011Z,10692.00
2018-04-06T06:43:00.013Z,10760.00
2018-04-06T06:43:59.903Z,10804.00
2018-04-06T06:44:59.855Z,10872.00
2018-04-06T06:45:59.828Z,10932.00
2018-04-06T06:46:59.789Z,10984.00
2018-04-06T06:47:59.785Z,11020.00
2018-04-06T06:48:59.730Z,11076.00
2018-04-06T06:49:59.674Z,11148.00
2018-04-06T06:50:59.642Z,11232.00
2018-04-06T06:51:59.605Z,11292.00
2018-04-06T06:52:59.560Z,11316.00
2018-04-06T06:53:59.562Z,11404.00
2018-04-06T06:54:59.489Z,11476.00
2018-04-06T06:55:59.460Z,10792.00
2018-04-06T06:56:59.409Z,10840.00
2018-04-06T06:57:59.383Z,10916.00
2018-04-06T06:58:59.340Z,10992.00
2018-04-06T06:59:59.339Z,11020.00
2018-04-06T07:00:59.306Z,11088.00
2018-04-06T07:01:59.250Z,11072.00
2018-04-06T07:02:59.192Z,11116.00
2018-04-06T07:03:59.180Z,11200.00
2018-04-06T07:04:59.119Z,11236.00
2018-04-06T07:05:59.121Z,11292.00
2018-04-06T07:06:59.063Z,11336.00
2018-04-06T07:07:59.020Z,11372.00
2018-04-06T07:08:58.995Z,11460.00
2018-04-06T07:09:58.988Z,11432.00
2018-04-06T07:10:58.923Z,11512.00
2018-04-06T07:11:58.886Z,11548.00
2018-04-06T07:12:58.824Z,11552.00
2018-04-06T07:13:58.784Z,11620.00
2018-04-06T07:14:58.753Z,11680.00
2018-04-06T07:15:58.750Z,11700.00
2018-04-06T07:16:58.682Z,11668.00
2018-04-06T07:17:58.642Z,11708.00
2018-04-06T07:18:58.609Z,11764.00
2018-04-06T07:19:58.574Z,11772.00
2018-04-06T07:20:58.577Z,11816.00
2018-04-06T07:21:58.500Z,11944.00
2018-04-06T07:22:58.486Z,11932.00
2018-04-06T07:23:58.427Z,11920.00
2018-04-06T07:24:58.380Z,11964.00
2018-04-06T07:25:58.347Z,11956.00
2018-04-06T07:26:58.331Z,11964.00
2018-04-06T07:27:58.276Z,11952.00
2018-04-06T07:28:58.238Z,11936.00
2018-04-06T07:29:58.202Z,11944.00
2018-04-06T07:30:58.166Z,12012.00
2018-04-06T07:31:58.146Z,11984.00
2018-04-06T07:32:58.094Z,12068.00
2018-04-06T07:33:58.047Z,12120.00
2018-04-06T07:34:58.020Z,12176.00
2018-04-06T07:35:57.984Z,12196.00
2018-04-06T07:36:57.967Z,12220.00
2018-04-06T07:37:57.907Z,12216.00
2018-04-06T07:38:57.881Z,12264.00
2018-04-06T07:39:58.709Z,12328.00
2018-04-06T07:40:57.801Z,12296.00
2018-04-06T07:41:57.760Z,12356.00
2018-04-06T07:42:57.758Z,12204.00
2018-04-06T07:43:57.687Z,12228.00
2018-04-06T07:44:57.658Z,12212.00
2018-04-06T07:45:57.623Z,12200.00
2018-04-06T07:46:57.746Z,12188.00
2018-04-06T07:47:57.555Z,12200.00
2018-04-06T07:48:57.516Z,12236.00
2018-04-06T07:49:57.477Z,12248.00
2018-04-06T07:50:57.440Z,12348.00
2018-04-06T07:51:57.438Z,12276.00
2018-04-06T07:52:57.376Z,12224.00
2018-04-06T07:53:57.343Z,12224.00
2018-04-06T07:54:57.298Z,12324.00
2018-04-06T07:55:57.265Z,12244.00
2018-04-06T07:56:57.274Z,12264.00
2018-04-06T07:57:57.220Z,12372.00
2018-04-06T07:58:57.160Z,12396.00
2018-04-06T07:59:57.133Z,12512.00
2018-04-06T08:00:57.087Z,12444.00
2018-04-06T08:01:57.086Z,12440.00
2018-04-06T08:02:57.016Z,12436.00
2018-04-06T08:03:56.977Z,12532.00
2018-04-06T08:04:56.950Z,12536.00
2018-04-06T08:05:56.903Z,12604.00
2018-04-06T08:06:56.877Z,12704.00
2018-04-06T08:07:56.871Z,12648.00
2018-04-06T08:08:56.805Z,12780.00
2018-04-06T08:09:56.775Z,12820.00
2018-04-06T08:10:56.728Z,12824.00
2018-04-06T08:11:56.702Z,12812.00
2018-04-06T08:12:56.674Z,12720.00
2018-04-06T08:13:56.655Z,12784.00
2018-04-06T08:14:56.594Z,12856.00
2018-04-06T08:15:56.563Z,12892.00
2018-04-06T08:16:56.522Z,12912.00
2018-04-06T08:17:56.490Z,12992.00
2018-04-06T08:18:56.458Z,13092.00
2018-04-06T08:19:56.450Z,13064.00
2018-04-06T08:20:56.387Z,12976.00
2018-04-06T08:21:56.349Z,13152.00
2018-04-06T08:22:56.322Z,13112.00
2018-04-06T08:23:56.283Z,13140.00
2018-04-06T08:24:56.279Z,13220.00
2018-04-06T08:25:56.222Z,13192.00
2018-04-06T08:26:56.180Z,13192.00
2018-04-06T08:27:56.144Z,13172.00
2018-04-06T08:28:56.105Z,13108.00
2018-04-06T08:29:56.073Z,13128.00
2018-04-06T08:30:56.081Z,13116.00
2018-04-06T08:31:56.008Z,13144.00
2018-04-06T08:32:55.987Z,13108.00
2018-04-06T08:33:55.937Z,13092.00
2018-04-06T08:34:55.958Z,13124.00
2018-04-06T08:35:55.913Z,13092.00
2018-04-06T08:36:55.837Z,13132.00
2018-04-06T08:37:55.798Z,13216.00
2018-04-06T08:38:55.766Z,13340.00
2018-04-06T08:39:55.734Z,13388.00
2018-04-06T08:40:55.726Z,13408.00
2018-04-06T08:41:55.689Z,13396.00
2018-04-06T08:42:55.627Z,13384.00
2018-04-06T08:43:55.591Z,13356.00
2018-04-06T08:44:55.557Z,13412.00
2018-04-06T08:45:55.520Z,13564.00
2018-04-06T08:46:55.511Z,13720.00
2018-04-06T08:47:55.454Z,13744.00
2018-04-06T08:48:55.422Z,13908.00
2018-04-06T08:49:55.386Z,14196.00
2018-04-06T08:50:55.360Z,14584.00
2018-04-06T08:51:55.351Z,15040.00
2018-04-06T08:52:55.287Z,15600.00
2018-04-06T08:53:55.256Z,16224.00
2018-04-06T08:54:55.211Z,16548.00
2018-04-06T08:55:55.181Z,17376.00
2018-04-06T08:56:55.148Z,18400.00
2018-04-06T08:57:55.142Z,19168.00
2018-04-06T08:58:55.086Z,19424.00
2018-04-06T08:59:55.060Z,19328.00
2018-04-06T09:00:55.018Z,19200.00
2018-04-06T09:01:54.984Z,19616.00
2018-04-06T09:02:54.969Z,19520.00
2018-04-06T09:03:54.926Z,19072.00
2018-04-06T09:04:54.879Z,18784.00
2018-04-06T09:05:54.858Z,18944.00
2018-04-06T09:06:54.841Z,18368.00
2018-04-06T09:07:54.816Z,17632.00
2018-04-06T09:08:54.752Z,17600.00
2018-04-06T09:09:54.715Z,17728.00
2018-04-06T09:10:54.693Z,17664.00
2018-04-06T09:11:54.647Z,17856.00
2018-04-06T09:12:54.649Z,18080.00
2018-04-06T09:13:54.591Z,18464.00
2018-04-06T09:14:54.556Z,18720.00
2018-04-06T09:15:54.521Z,18656.00
2018-04-06T09:16:54.494Z,18368.00
2018-04-06T09:17:54.451Z,18240.00
2018-04-06T09:18:54.448Z,18432.00
2018-04-06T09:19:54.389Z,18528.00
2018-04-06T09:20:54.364Z,18624.00
2018-04-06T09:21:54.320Z,19136.00
2018-04-06T09:22:54.295Z,19680.00
2018-04-06T09:23:54.304Z,19072.00
2018-04-06T09:24:54.216Z,18144.00
2018-04-06T09:25:54.193Z,18176.00
2018-04-06T09:26:54.153Z,18144.00
2018-04-06T09:27:54.122Z,18080.00
2018-04-06T09:28:54.122Z,18144.00
2018-04-06T09:29:54.056Z,18272.00
2018-04-06T09:30:54.032Z,18304.00
2018-04-06T09:31:53.988Z,18208.00
2018-04-06T09:32:53.954Z,18208.00
2018-04-06T09:33:53.928Z,18272.00
2018-04-06T09:34:53.940Z,18208.00
2018-04-06T09:35:53.860Z,18240.00
2018-04-06T09:36:53.827Z,18240.00
2018-04-06T09:37:53.790Z,18272.00
2018-04-06T09:38:53.756Z,18336.00
2018-04-06T09:39:53.729Z,18368.00
2018-04-06T09:40:53.732Z,18688.00
2018-04-06T09:41:53.665Z,18880.00
2018-04-06T09:42:53.631Z,19392.00
2018-04-06T09:43:53.592Z,19712.00
2018-04-06T09:44:53.599Z,19648.00
2018-04-06T09:45:53.532Z,19584.00
2018-04-06T09:46:53.524Z,19936.00
2018-04-06T09:47:53.464Z,19936.00
2018-04-06T09:48:53.436Z,19296.00
2018-04-06T09:49:53.402Z,19072.00
2018-04-06T09:50:53.373Z,18976.00
2018-04-06T09:51:53.339Z,19040.00
2018-04-06T09:52:53.335Z,19008.00
2018-04-06T09:53:53.273Z,19104.00
2018-04-06T09:54:53.243Z,19104.00
2018-04-06T09:55:53.213Z,19008.00
2018-04-06T09:56:53.178Z,18976.00
2018-04-06T09:57:53.149Z,19040.00
2018-04-06T09:58:53.142Z,19040.00
2018-04-06T09:59:53.082Z,18784.00
2018-04-06T10:00:53.050Z,18720.00
2018-04-06T10:01:53.023Z,18592.00
2018-04-06T10:02:53.031Z,18528.00
2018-04-06T10:03:52.959Z,18528.00
2018-04-06T10:04:52.955Z,18400.00
2018-04-06T10:05:52.898Z,18240.00
2018-04-06T10:06:52.863Z,18272.00
2018-04-06T10:07:52.837Z,18240.00
2018-04-06T10:08:52.802Z,17928.00
2018-04-06T10:09:52.772Z,17836.00
2018-04-06T10:10:52.771Z,17852.00
2018-04-06T10:11:52.708Z,18080.00
2018-04-06T10:12:52.677Z,18080.00
2018-04-06T10:13:52.642Z,17952.00
2018-04-06T10:14:52.611Z,17360.00
2018-04-06T10:15:52.581Z,17604.00
2018-04-06T10:16:52.577Z,17856.00
2018-04-06T10:17:52.520Z,17560.00
2018-04-06T10:18:52.488Z,17888.00
2018-04-06T10:19:52.460Z,17920.00
2018-04-06T10:20:52.434Z,17984.00
2018-04-06T10:21:52.401Z,17856.00
2018-04-06T10:22:52.409Z,17344.00
2018-04-06T10:23:52.336Z,17284.00
2018-04-06T10:24:52.308Z,17304.00
2018-04-06T10:25:52.312Z,16940.00
2018-04-06T10:26:52.245Z,17044.00
2018-04-06T10:27:52.214Z,17076.00
2018-04-06T10:28:53.193Z,17104.00
2018-04-06T10:29:52.153Z,17060.00
2018-04-06T10:30:52.126Z,17136.00
2018-04-06T10:31:52.092Z,17124.00
2018-04-06T10:32:52.095Z,17168.00
2018-04-06T10:33:52.033Z,17192.00
2018-04-06T10:34:52.005Z,17048.00
2018-04-06T10:35:51.974Z,16924.00
2018-04-06T10:36:51.946Z,16976.00
2018-04-06T10:37:51.913Z,16980.00
2018-04-06T10:38:51.906Z,16992.00
2018-04-06T10:39:51.855Z,16896.00
2018-04-06T10:40:51.822Z,16836.00
2018-04-06T10:41:51.790Z,16676.00
2018-04-06T10:42:51.760Z,16696.00
2018-04-06T10:43:51.729Z,16684.00
2018-04-06T10:44:51.727Z,16668.00
2018-04-06T10:45:51.686Z,16524.00
2018-04-06T10:46:51.647Z,16396.00
2018-04-06T10:47:51.609Z,16448.00
2018-04-06T10:48:51.590Z,16380.00
2018-04-06T10:49:51.573Z,16320.00
2018-04-06T10:50:51.515Z,16440.00
2018-04-06T10:51:51.522Z,16500.00
2018-04-06T10:52:51.453Z,16480.00
2018-04-06T10:53:51.426Z,16580.00
2018-04-06T10:54:51.420Z,16540.00
2018-04-06T10:55:51.368Z,16512.00
2018-04-06T10:56:51.334Z,16568.00
2018-04-06T10:57:51.302Z,16568.00
2018-04-06T10:58:51.276Z,16580.00
2018-04-06T10:59:51.269Z,16520.00
2018-04-06T11:00:51.212Z,16556.00
2018-04-06T11:01:51.194Z,16448.00
2018-04-06T11:02:51.152Z,16188.00
2018-04-06T11:03:51.121Z,16152.00
2018-04-06T11:04:51.113Z,16128.00
2018-04-06T11:05:51.061Z,16136.00
2018-04-06T11:06:51.028Z,16204.00
2018-04-06T11:07:50.999Z,16184.00
2018-04-06T11:08:50.966Z,16080.00
2018-04-06T11:09:50.963Z,16112.00
2018-04-06T11:10:50.907Z,16252.00
2018-04-06T11:11:50.896Z,16268.00
2018-04-06T11:12:50.844Z,16168.00
2018-04-06T11:13:50.813Z,16088.00
2018-04-06T11:14:50.789Z,16120.00
2018-04-06T11:15:50.780Z,16052.00
2018-04-06T11:16:50.720Z,16100.00
2018-04-06T11:17:50.690Z,16120.00
2018-04-06T11:18:50.671Z,16172.00
2018-04-06T11:19:50.630Z,16036.00
2018-04-06T11:20:50.599Z,16084.00
2018-04-06T11:21:50.613Z,16040.00
2018-04-06T11:22:50.538Z,16128.00
2018-04-06T11:23:50.511Z,16036.00
2018-04-06T11:24:50.493Z,15972.00
2018-04-06T11:25:50.447Z,16040.00
2018-04-06T11:26:50.442Z,16176.00
2018-04-06T11:27:50.388Z,16240.00
2018-04-06T11:28:50.358Z,16144.00
2018-04-06T11:29:50.330Z,15928.00
2018-04-06T11:30:50.298Z,15800.00
2018-04-06T11:31:50.288Z,15700.00
2018-04-06T11:32:50.236Z,15672.00
2018-04-06T11:33:50.205Z,15556.00
2018-04-06T11:34:50.179Z,15504.00
2018-04-06T11:35:50.158Z,15472.00
2018-04-06T11:36:50.142Z,15484.00
2018-04-06T11:37:50.098Z,15536.00
2018-04-06T11:38:50.054Z,15480.00
2018-04-06T11:39:50.023Z,15372.00
2018-04-06T11:40:49.992Z,15060.00
2018-04-06T11:41:50.003Z,15152.00
2018-04-06T11:42:49.930Z,14912.00
2018-04-06T11:43:49.917Z,14912.00
2018-04-06T11:44:49.947Z,14984.00
2018-04-06T11:45:49.838Z,15052.00
2018-04-06T11:46:49.820Z,15148.00
2018-04-06T11:47:49.808Z,15108.00
2018-04-06T11:48:49.755Z,15120.00
2018-04-06T11:49:49.719Z,15068.00
2018-04-06T11:50:49.686Z,14956.00
2018-04-06T11:51:49.660Z,14932.00
2018-04-06T11:52:49.629Z,14976.00
2018-04-06T11:53:49.620Z,15036.00
2018-04-06T11:54:49.571Z,14892.00
2018-04-06T11:55:49.538Z,15124.00
2018-04-06T11:56:49.508Z,15088.00
2018-04-06T11:57:49.478Z,14880.00
2018-04-06T11:58:49.473Z,14532.00
2018-04-06T11:59:49.452Z,14292.00
2018-04-06T12:00:49.391Z,14680.00
2018-04-06T12:01:49.359Z,14720.00
2018-04-06T12:02:49.333Z,14636.00
2018-04-06T12:03:49.321Z,14552.00
2018-04-06T12:04:49.270Z,14476.00
2018-04-06T12:05:49.237Z,14532.00
2018-04-06T12:06:49.211Z,14712.00
2018-04-06T12:07:49.190Z,14776.00
2018-04-06T12:08:49.171Z,14792.00
2018-04-06T12:09:49.118Z,14704.00
2018-04-06T12:10:49.085Z,14604.00
2018-04-06T12:11:49.063Z,14640.00
2018-04-06T12:12:49.029Z,14588.00
2018-04-06T12:13:49.020Z,14656.00
2018-04-06T12:14:48.966Z,14536.00
2018-04-06T12:15:48.936Z,14004.00
2018-04-06T12:16:48.906Z,14192.00
2018-04-06T12:17:48.879Z,14260.00
2018-04-06T12:18:48.849Z,14112.00
2018-04-06T12:19:48.841Z,13988.00
2018-04-06T12:20:48.787Z,13860.00